Time;durP1;ratioP1;P1;durP2;ratioP2;P2;SDS_P1;SDS_P2;PMS_P1;PMS_P2;Temp;Humidity;BMP_temperature;BMP_pressure;BME280_temperature;BME280_humidity;BME280_pressure;Samples;Min_cycle;Max_cycle;Signal;HPM_P1;HPM_P2
2022/10/22 00:00:25;;;;;;;0.10;0.10;;;11.10;99.90;;;;;;5008379;28;20066;-77
2022/10/22 00:02:51;;;;;;;0.15;0.15;;;11.10;99.90;;;;;;5006550;28;20011;-77
2022/10/22 00:05:16;;;;;;;0.38;0.38;;;11.00;99.90;;;;;;5006025;28;20255;-77
2022/10/22 00:07:42;;;;;;;1.13;1.13;;;11.00;99.90;;;;;;5005448;28;20033;-77
2022/10/22 00:10:12;;;;;;;0.10;0.10;;;11.00;99.90;;;;;;5007073;28;20037;-78
2022/10/22 00:12:40;;;;;;;0.10;0.10;;;11.10;99.90;;;;;;5005230;28;20302;-80
2022/10/22 00:15:21;;;;;;;0.20;0.20;;;11.10;99.90;;;;;;5006047;28;20090;-78
2022/10/22 00:17:48;;;;;;;0.22;0.22;;;11.10;99.90;;;;;;5007094;28;20061;-77
2022/10/22 00:20:18;;;;;;;0.13;0.13;;;11.20;99.90;;;;;;5004436;28;20018;-78
2022/10/22 00:22:44;;;;;;;2.10;2.03;;;11.10;99.90;;;;;;5003397;28;20081;-78
2022/10/22 00:25:09;;;;;;;3.03;2.92;;;11.10;99.90;;;;;;5006825;28;20617;-78
2022/10/22 00:27:35;;;;;;;0.10;0.10;;;11.10;99.90;;;;;;5011653;28;20022;-77
2022/10/22 00:30:03;;;;;;;0.10;0.10;;;11.10;99.90;;;;;;5010354;28;20106;-78
2022/10/22 00:32:31;;;;;;;0.10;0.10;;;11.10;99.90;;;;;;5010875;28;20089;-77
2022/10/22 00:34:57;;;;;;;0.10;0.10;;;11.10;99.90;;;;;;5013397;28;20069;-77
2022/10/22 00:37:24;;;;;;;0.20;0.20;;;11.10;99.90;;;;;;5009954;28;20034;-79
2022/10/22 00:39:49;;;;;;;0.20;0.20;;;11.10;99.90;;;;;;5010028;28;20276;-77
2022/10/22 00:42:23;;;;;;;0.10;0.10;;;11.00;99.90;;;;;;4992566;28;20022;-78
2022/10/22 00:45:30;;;;;;;0.00;0.00;;;11.00;99.90;;;;;;5011534;28;20022;-77
2022/10/22 00:48:18;;;;;;;0.20;0.20;;;11.00;99.90;;;;;;5006333;28;20300;-77
2022/10/22 00:50:55;;;;;;;0.10;0.10;;;10.90;99.90;;;;;;5006210;28;20018;-77
2022/10/22 00:53:30;;;;;;;1.85;1.83;;;10.90;99.90;;;;;;5008049;28;20516;-77
2022/10/22 00:56:26;;;;;;;0.20;0.20;;;10.80;99.90;;;;;;5010168;28;20030;-77
2022/10/22 00:58:56;;;;;;;0.20;0.20;;;10.90;99.90;;;;;;4968298;29;20046;-77
2022/10/22 01:01:57;;;;;;;0.10;0.10;;;10.90;99.90;;;;;;4968406;28;20046;-77
2022/10/22 01:04:25;;;;;;;0.10;0.10;;;11.00;99.90;;;;;;4956355;29;20028;-77
2022/10/22 01:06:50;;;;;;;0.10;0.10;;;10.90;99.90;;;;;;4970538;29;20079;-77
2022/10/22 01:09:53;;;;;;;0.20;0.20;;;10.90;99.90;;;;;;4952597;29;20058;-77
2022/10/22 01:12:48;;;;;;;0.32;0.32;;;10.90;99.90;;;;;;4970234;29;20031;-76
2022/10/22 01:15:36;;;;;;;0.20;0.20;;;10.90;99.90;;;;;;4955622;29;20114;-77
2022/10/22 01:18:06;;;;;;;0.10;0.10;;;10.80;99.90;;;;;;4951134;29;20415;-77
2022/10/22 01:21:12;;;;;;;0.10;0.10;;;10.80;99.90;;;;;;4950475;29;20182;-77
2022/10/22 01:23:57;;;;;;;0.00;0.00;;;10.70;99.90;;;;;;4950814;29;20039;-77
2022/10/22 01:26:47;;;;;;;39.25;22.23;;;10.70;99.90;;;;;;4951352;29;20047;-77
2022/10/22 01:29:35;;;;;;;0.10;0.10;;;10.70;99.90;;;;;;4949293;28;20032;-77
2022/10/22 01:32:14;;;;;;;0.70;0.70;;;10.70;99.90;;;;;;5010010;28;20025;-77
2022/10/22 01:34:43;;;;;;;0.52;0.52;;;10.70;99.90;;;;;;5012660;28;20044;-77
2022/10/22 01:37:11;;;;;;;0.10;0.10;;;10.70;99.90;;;;;;5012783;28;20266;-76
2022/10/22 01:39:39;;;;;;;0.10;0.10;;;10.70;99.90;;;;;;5010837;28;20010;-77
2022/10/22 01:42:05;;;;;;;0.10;0.10;;;14.00;99.90;;;;;;5010461;28;20081;-78
2022/10/22 01:44:51;;;;;;;0.00;0.00;;;10.90;99.90;;;;;;5011682;28;20032;-77
2022/10/22 01:47:45;;;;;;;0.10;0.10;;;10.90;99.90;;;;;;5009495;28;20034;-79
2022/10/22 01:53:39;;;;;;;0.10;0.10;;;10.90;99.90;;;;;;5014621;23;20050;-77
2022/10/22 01:56:24;;;;;;;0.10;0.10;;;10.90;99.90;;;;;;4991763;28;20010;-82
2022/10/22 01:58:58;;;;;;;1.52;1.48;;;10.90;99.90;;;;;;5008126;28;20029;-78
2022/10/22 02:02:00;;;;;;;0.10;0.10;;;11.00;99.90;;;;;;5008701;28;20026;-77
2022/10/22 02:04:37;;;;;;;3.72;3.53;;;11.00;99.90;;;;;;5010205;28;20038;-77
2022/10/22 02:07:07;;;;;;;0.10;0.10;;;11.00;99.90;;;;;;5011488;28;20119;-78
2022/10/22 02:09:34;;;;;;;0.10;0.10;;;11.00;99.90;;;;;;5012818;28;20033;-78
2022/10/22 02:12:28;;;;;;;0.20;0.20;;;11.10;99.90;;;;;;5011149;28;20236;-77
2022/10/22 02:15:03;;;;;;;0.20;0.20;;;11.10;99.90;;;;;;5011371;28;20030;-77
2022/10/22 02:17:33;;;;;;;0.10;0.10;;;11.10;99.90;;;;;;5011623;28;20038;-77
2022/10/22 02:20:16;;;;;;;0.10;0.10;;;11.10;99.90;;;;;;5011499;28;20248;-77
2022/10/22 02:22:42;;;;;;;0.10;0.10;;;11.20;99.90;;;;;;5010319;28;20031;-81
2022/10/22 02:25:09;;;;;;;0.10;0.10;;;11.20;99.90;;;;;;5007453;28;20094;-77
2022/10/22 02:28:13;;;;;;;0.10;0.10;;;11.20;99.90;;;;;;5007514;28;20070;-76
2022/10/22 02:30:45;;;;;;;26.38;21.75;;;11.20;99.90;;;;;;5009119;28;20023;-78
2022/10/22 02:33:35;;;;;;;0.00;0.00;;;11.20;99.90;;;;;;5011068;28;20034;-77
2022/10/22 02:36:05;;;;;;;0.10;0.10;;;11.20;99.90;;;;;;5007187;28;20026;-77
2022/10/22 02:38:33;;;;;;;0.10;0.10;;;11.20;99.90;;;;;;5008180;28;20044;-78
2022/10/22 02:41:00;;;;;;;3.60;3.40;;;11.20;99.90;;;;;;4986969;28;20018;-77
2022/10/22 02:43:28;;;;;;;0.10;0.10;;;11.20;99.90;;;;;;5007184;28;20027;-78
2022/10/22 02:46:11;;;;;;;0.32;0.32;;;11.20;99.90;;;;;;5007710;28;20002;-77
2022/10/22 02:48:39;;;;;;;0.05;0.05;;;11.20;99.90;;;;;;4988076;28;20094;-77
2022/10/22 02:51:07;;;;;;;1.08;1.08;;;11.20;99.90;;;;;;5007711;28;20017;-78
2022/10/22 02:53:33;;;;;;;0.43;0.43;;;10.00;99.90;;;;;;4990915;28;20267;-78
2022/10/22 02:55:59;;;;;;;17.17;9.52;;;11.20;99.90;;;;;;5008735;28;20041;-78
2022/10/22 02:58:33;;;;;;;0.10;0.10;;;11.20;99.90;;;;;;5007087;28;20022;-77
2022/10/22 03:01:00;;;;;;;0.10;0.10;;;11.20;99.90;;;;;;4993951;28;20533;-77
2022/10/22 03:03:26;;;;;;;0.90;0.90;;;11.30;99.90;;;;;;4989087;28;20319;-77
2022/10/22 03:05:52;;;;;;;0.10;0.10;;;11.30;99.90;;;;;;4986939;28;20068;-77
2022/10/22 03:08:20;;;;;;;0.10;0.10;;;11.30;99.90;;;;;;4968327;28;20493;-77
2022/10/22 03:10:45;;;;;;;0.17;0.17;;;11.30;99.90;;;;;;4986258;28;20304;-77
2022/10/22 03:13:11;;;;;;;0.10;0.10;;;11.40;99.90;;;;;;4986079;28;20519;-77
2022/10/22 03:15:37;;;;;;;0.10;0.10;;;11.50;99.90;;;;;;4979589;28;20030;-76
2022/10/22 03:18:03;;;;;;;0.10;0.10;;;11.60;99.90;;;;;;5006079;28;20031;-77
2022/10/22 03:20:28;;;;;;;0.10;0.10;;;11.60;99.90;;;;;;4987724;28;20030;-77
2022/10/22 03:22:55;;;;;;;0.20;0.20;;;11.70;99.90;;;;;;4989900;28;20502;-77
2022/10/22 03:25:25;;;;;;;0.10;0.10;;;11.70;99.90;;;;;;5006416;28;20026;-78
2022/10/22 03:27:55;;;;;;;0.10;0.10;;;11.80;99.90;;;;;;5006541;28;20006;-77
2022/10/22 03:30:22;;;;;;;0.20;0.20;;;11.90;99.90;;;;;;5004944;28;20050;-79
2022/10/22 03:32:48;;;;;;;0.10;0.10;;;12.00;99.90;;;;;;5006843;28;20026;-77
2022/10/22 03:35:13;;;;;;;0.25;0.25;;;12.00;99.90;;;;;;4989231;28;20045;-78
2022/10/22 03:37:45;;;;;;;0.10;0.10;;;12.00;99.90;;;;;;5007441;28;20030;-77
2022/10/22 03:40:12;;;;;;;0.10;0.10;;;12.10;99.90;;;;;;5004884;28;20022;-77
2022/10/22 03:42:39;;;;;;;0.10;0.10;;;12.10;99.90;;;;;;5002280;28;20029;-77
2022/10/22 03:45:06;;;;;;;0.20;0.20;;;12.50;99.90;;;;;;5007705;28;20030;-80
2022/10/22 03:47:32;;;;;;;0.10;0.10;;;12.30;99.90;;;;;;5003188;28;20025;-77
2022/10/22 03:49:58;;;;;;;0.15;0.15;;;12.30;99.90;;;;;;5005032;28;20082;-77
2022/10/22 03:52:24;;;;;;;0.20;0.20;;;12.30;99.90;;;;;;5007270;28;20061;-79
2022/10/22 03:54:52;;;;;;;0.10;0.10;;;12.30;99.90;;;;;;4996616;28;20044;-80
2022/10/22 03:57:18;;;;;;;0.10;0.10;;;12.40;99.90;;;;;;5000131;28;20018;-79
2022/10/22 03:59:47;;;;;;;0.35;0.35;;;12.30;99.90;;;;;;4986843;28;20228;-80
2022/10/22 04:02:13;;;;;;;0.10;0.10;;;12.20;99.90;;;;;;5000624;28;20072;-78
2022/10/22 04:04:39;;;;;;;0.25;0.25;;;12.20;99.90;;;;;;4977481;28;20567;-77
2022/10/22 04:07:06;;;;;;;0.10;0.10;;;12.10;99.90;;;;;;4992004;28;20018;-81
2022/10/22 04:09:33;;;;;;;0.10;0.10;;;12.00;99.90;;;;;;5001699;28;20045;-79
2022/10/22 04:11:59;;;;;;;2.05;1.90;;;11.90;99.90;;;;;;4980895;28;20025;-77
2022/10/22 04:14:25;;;;;;;0.50;0.50;;;11.80;99.90;;;;;;4986092;28;20037;-79
2022/10/22 04:16:53;;;;;;;3.45;3.28;;;11.70;99.90;;;;;;5003011;28;20038;-78
2022/10/22 04:19:19;;;;;;;0.10;0.10;;;11.70;99.90;;;;;;5007357;28;20081;-78
2022/10/22 04:22:06;;;;;;;0.10;0.10;;;11.70;99.90;;;;;;4989245;28;20026;-78
2022/10/22 04:24:35;;;;;;;0.10;0.10;;;11.60;99.90;;;;;;4912292;29;20032;-78
2022/10/22 04:27:01;;;;;;;1.23;1.23;;;11.60;99.90;;;;;;4927973;29;20079;-77
2022/10/22 04:29:27;;;;;;;0.10;0.10;;;11.50;99.90;;;;;;4928895;29;20046;-77
2022/10/22 04:31:52;;;;;;;0.35;0.35;;;11.50;99.90;;;;;;4927996;29;20563;-78
2022/10/22 04:34:18;;;;;;;0.10;0.10;;;11.50;99.90;;;;;;4913446;29;20111;-77
2022/10/22 04:36:47;;;;;;;0.68;0.68;;;11.40;99.90;;;;;;4928288;29;20033;-78
2022/10/22 04:39:14;;;;;;;0.63;0.63;;;11.40;99.90;;;;;;4930727;29;20160;-77
2022/10/22 04:41:48;;;;;;;0.65;0.65;;;11.40;99.90;;;;;;4912975;29;20036;-78
2022/10/22 04:44:34;;;;;;;27.58;17.55;;;11.40;99.90;;;;;;4929579;29;20021;-77
2022/10/22 04:47:00;;;;;;;0.10;0.10;;;11.30;99.90;;;;;;4909504;29;20404;-78
2022/10/22 04:49:26;;;;;;;0.35;0.35;;;11.20;99.90;;;;;;4904798;29;20239;-77
2022/10/22 04:51:53;;;;;;;0.10;0.10;;;;;;;;;;4903325;29;20125;-77
2022/10/22 04:54:19;;;;;;;0.10;0.10;;;11.10;99.90;;;;;;4902230;29;20090;-77
2022/10/22 04:56:45;;;;;;;0.20;0.20;;;11.10;99.90;;;;;;4903311;29;20048;-77
2022/10/22 04:59:14;;;;;;;0.30;0.30;;;11.00;99.90;;;;;;4903209;29;20028;-78
2022/10/22 05:01:42;;;;;;;0.13;0.13;;;11.00;99.90;;;;;;4944862;28;20106;-76
2022/10/22 05:04:14;;;;;;;0.10;0.10;;;11.00;99.90;;;;;;4984275;28;20100;-76
2022/10/22 05:06:41;;;;;;;0.10;0.10;;;11.10;99.90;;;;;;5000552;28;20042;-77
2022/10/22 05:09:16;;;;;;;0.10;0.10;;;11.00;99.90;;;;;;4978869;28;20053;-77
2022/10/22 05:11:45;;;;;;;0.10;0.10;;;11.00;99.90;;;;;;4982347;28;20030;-77
2022/10/22 05:16:46;;;;;;;0.10;0.10;;;11.00;99.90;;;;;;5151606;23;20062;-77
2022/10/22 05:31:11;;;;;;;0.10;0.10;;;11.20;99.90;;;;;;5822940;23;20054;-80
2022/10/22 05:33:38;;;;;;;0.10;0.10;;;11.80;99.90;;;;;;4990335;28;20030;-76
2022/10/22 05:36:07;;;;;;;0.10;0.10;;;11.40;99.90;;;;;;4998435;28;20069;-76
2022/10/22 05:38:34;;;;;;;0.15;0.15;;;11.30;99.90;;;;;;5001863;28;20026;-76
2022/10/22 05:41:22;;;;;;;0.73;0.73;;;11.30;99.90;;;;;;4996019;28;20077;-77
2022/10/22 05:43:48;;;;;;;0.10;0.10;;;12.00;99.90;;;;;;4994676;28;20013;-77
2022/10/22 05:46:20;;;;;;;0.50;0.50;;;11.40;99.90;;;;;;4996073;28;20027;-78
2022/10/22 05:49:00;;;;;;;0.10;0.10;;;11.50;99.90;;;;;;4995991;28;20057;-77
2022/10/22 05:51:31;;;;;;;0.00;0.00;;;11.50;99.90;;;;;;4994370;28;20373;-76
2022/10/22 05:54:02;;;;;;;0.10;0.10;;;11.50;99.90;;;;;;4995873;28;20517;-78
2022/10/22 05:56:33;;;;;;;0.10;0.10;;;11.60;99.90;;;;;;4992608;28;20030;-78
2022/10/22 05:58:59;;;;;;;0.20;0.20;;;11.60;99.90;;;;;;4989873;28;20336;-77
2022/10/22 06:01:27;;;;;;;0.20;0.20;;;11.50;99.90;;;;;;4992845;28;20277;-79
2022/10/22 06:03:58;;;;;;;0.20;0.20;;;11.60;99.90;;;;;;4993337;28;20038;-77
2022/10/22 06:06:27;;;;;;;0.20;0.20;;;11.60;99.90;;;;;;4984447;28;20026;-77
2022/10/22 06:08:54;;;;;;;0.20;0.20;;;11.70;99.90;;;;;;4986028;28;20489;-77
2022/10/22 06:11:21;;;;;;;0.20;0.20;;;11.80;99.90;;;;;;4982019;28;20050;-80
2022/10/22 06:13:48;;;;;;;0.10;0.10;;;11.90;99.90;;;;;;4982047;28;20045;-80
2022/10/22 06:16:15;;;;;;;0.10;0.10;;;11.90;99.90;;;;;;4981941;28;20069;-79
2022/10/22 06:18:41;;;;;;;0.10;0.10;;;11.90;99.90;;;;;;4981032;28;20710;-81
2022/10/22 06:21:08;;;;;;;0.15;0.15;;;11.90;99.90;;;;;;4981320;28;20014;-82
2022/10/22 06:23:36;;;;;;;0.57;0.57;;;11.90;99.90;;;;;;4981475;28;20243;-82
2022/10/22 06:26:03;;;;;;;0.40;0.40;;;12.00;99.90;;;;;;4982276;28;20054;-80
2022/10/22 06:28:28;;;;;;;0.17;0.17;;;12.00;99.90;;;;;;4980732;28;20027;-79
2022/10/22 06:30:57;;;;;;;0.35;0.35;;;12.00;99.90;;;;;;4979384;28;20048;-79
2022/10/22 06:33:22;;;;;;;3.35;3.15;;;12.00;99.90;;;;;;4980859;28;20085;-80
2022/10/22 06:35:48;;;;;;;0.30;0.30;;;12.10;99.90;;;;;;4981130;28;20026;-79
2022/10/22 06:38:14;;;;;;;0.20;0.20;;;12.20;99.90;;;;;;4981162;28;20096;-79
2022/10/22 06:40:42;;;;;;;0.50;0.50;;;12.30;99.90;;;;;;4980592;28;20033;-79
2022/10/22 06:43:09;;;;;;;0.20;0.20;;;12.40;99.90;;;;;;4980129;28;20031;-83
2022/10/22 06:45:35;;;;;;;0.20;0.20;;;10.00;99.90;;;;;;4980696;28;20022;-79
2022/10/22 06:48:00;;;;;;;0.15;0.15;;;11.40;99.90;;;;;;4980190;28;20026;-80
2022/10/22 06:50:26;;;;;;;1.45;1.45;;;12.70;99.90;;;;;;4980691;28;20131;-80
2022/10/22 06:52:58;;;;;;;3.20;2.97;;;12.80;99.90;;;;;;4980918;28;20513;-79
2022/10/22 06:55:24;;;;;;;0.50;0.50;;;12.70;99.90;;;;;;4962757;28;20045;-80
2022/10/22 06:57:49;;;;;;;0.43;0.43;;;12.70;99.90;;;;;;4981204;28;20026;-86
2022/10/22 07:00:15;;;;;;;0.47;0.47;;;12.90;99.90;;;;;;4981621;28;20428;-77
2022/10/22 07:02:41;;;;;;;0.95;0.95;;;12.90;99.90;;;;;;4962766;28;20616;-77
2022/10/22 07:05:07;;;;;;;0.20;0.20;;;12.90;99.90;;;;;;4980672;28;20034;-79
2022/10/22 07:07:33;;;;;;;0.20;0.20;;;12.90;99.90;;;;;;4980164;28;20033;-78
2022/10/22 07:09:59;;;;;;;0.75;0.75;;;13.00;99.90;;;;;;4980146;28;20613;-79
2022/10/22 07:12:25;;;;;;;1.00;0.93;;;13.10;99.90;;;;;;4980410;28;20033;-78
2022/10/22 07:14:50;;;;;;;0.10;0.10;;;13.00;99.90;;;;;;4962293;28;20038;-79
2022/10/22 07:17:16;;;;;;;0.30;0.30;;;13.30;99.90;;;;;;4985221;28;20026;-83
2022/10/22 07:19:42;;;;;;;0.30;0.30;;;13.40;99.90;;;;;;4985476;28;20064;-79
2022/10/22 07:22:08;;;;;;;0.17;0.17;;;13.50;99.90;;;;;;4971829;28;20026;-78
2022/10/22 07:24:36;;;;;;;1.30;1.27;;;13.70;99.90;;;;;;4966754;28;20113;-78
2022/10/22 07:27:02;;;;;;;2.00;1.90;;;13.80;99.90;;;;;;4984331;28;20320;-79
2022/10/22 07:29:30;;;;;;;0.10;0.10;;;13.90;99.90;;;;;;4967375;28;20053;-84
2022/10/22 07:32:02;;;;;;;0.10;0.10;;;14.10;99.90;;;;;;4983539;28;20050;-88
2022/10/22 07:34:27;;;;;;;0.22;0.22;;;14.30;99.90;;;;;;4984281;28;20040;-77
2022/10/22 07:36:53;;;;;;;0.47;0.47;;;14.40;99.90;;;;;;4983682;28;20026;-90
2022/10/22 07:39:19;;;;;;;0.40;0.40;;;14.60;99.90;;;;;;4968185;28;20406;-77
2022/10/22 07:41:45;;;;;;;0.20;0.20;;;14.80;99.90;;;;;;4963254;28;20108;-76
2022/10/22 07:44:10;;;;;;;0.10;0.10;;;15.00;99.90;;;;;;4963056;28;20301;-80
2022/10/22 07:46:36;;;;;;;1.00;1.00;;;15.20;99.90;;;;;;4964540;28;20331;-76
2022/10/22 07:49:02;;;;;;;0.30;0.30;;;15.40;99.90;;;;;;4980546;28;20540;-77
2022/10/22 07:51:31;;;;;;;2.47;2.40;;;15.70;99.10;;;;;;4980423;28;20023;-79
2022/10/22 07:53:56;;;;;;;0.57;0.57;;;15.80;98.50;;;;;;4980033;28;20045;-87
2022/10/22 07:56:22;;;;;;;0.13;0.13;;;15.90;98.00;;;;;;4979837;28;20030;-82
2022/10/22 07:58:48;;;;;;;0.10;0.10;;;16.00;97.80;;;;;;4962084;28;20052;-89
2022/10/22 08:01:14;;;;;;;0.20;0.20;;;16.10;97.00;;;;;;4979717;28;20050;-81
2022/10/22 08:03:46;;;;;;;4.78;2.05;;;16.30;96.10;;;;;;4977830;28;20030;-84
2022/10/22 08:06:13;;;;;;;0.10;0.10;;;16.50;95.50;;;;;;4962667;28;20026;-84
2022/10/22 08:08:39;;;;;;;0.77;0.73;;;16.70;94.90;;;;;;4980978;28;20588;-77
2022/10/22 08:11:06;;;;;;;6.43;1.35;;;16.90;94.40;;;;;;4977793;28;20671;-77
2022/10/22 08:13:31;;;;;;;2.80;2.55;;;17.00;93.30;;;;;;4979734;28;20232;-76
2022/10/22 08:15:59;;;;;;;0.10;0.10;;;17.10;92.20;;;;;;4980447;28;20023;-84
2022/10/22 08:18:25;;;;;;;6.75;6.13;;;17.30;91.70;;;;;;4979145;28;20316;-80
2022/10/22 08:20:51;;;;;;;0.10;0.10;;;17.50;92.00;;;;;;4979472;28;20110;-79
2022/10/22 08:23:17;;;;;;;1.30;1.20;;;17.70;91.00;;;;;;4979047;28;20296;-78
2022/10/22 08:25:43;;;;;;;0.20;0.20;;;17.90;90.10;;;;;;4978489;28;20101;-80
2022/10/22 08:28:09;;;;;;;0.10;0.10;;;17.80;88.80;;;;;;4978871;28;20027;-80
2022/10/22 08:30:37;;;;;;;0.25;0.25;;;17.80;89.10;;;;;;4978842;28;20394;-76
2022/10/22 08:33:04;;;;;;;3.88;3.53;;;17.90;86.50;;;;;;4960535;28;20074;-80
2022/10/22 08:35:30;;;;;;;0.30;0.30;;;17.70;87.30;;;;;;4978204;28;20035;-76
2022/10/22 08:37:55;;;;;;;0.20;0.20;;;17.90;85.90;;;;;;4978329;28;20030;-75
2022/10/22 08:40:38;;;;;;;0.40;0.40;;;18.10;82.70;;;;;;4979015;28;20366;-88
2022/10/22 08:43:06;;;;;;;20.48;3.85;;;18.30;83.50;;;;;;4978492;28;20050;-77
2022/10/22 08:46:20;;;;;;;0.35;0.35;;;18.40;81.70;;;;;;4978335;28;20322;-76
2022/10/22 08:48:59;;;;;;;3.20;1.20;;;18.70;80.60;;;;;;4961882;28;20038;-77
2022/10/22 08:51:34;;;;;;;0.10;0.10;;;18.90;80.00;;;;;;4989773;28;20544;-91
2022/10/22 08:54:21;;;;;;;0.85;0.77;;;18.90;80.40;;;;;;4987360;28;20054;-76
2022/10/22 08:56:58;;;;;;;0.20;0.20;;;18.90;80.10;;;;;;4986495;28;20386;-76
2022/10/22 08:59:44;;;;;;;0.47;0.47;;;18.90;80.70;;;;;;4985357;28;20256;-77
2022/10/22 09:02:48;;;;;;;0.10;0.10;;;18.90;80.20;;;;;;4984151;28;20034;-80
2022/10/22 09:05:39;;;;;;;0.10;0.10;;;19.00;79.40;;;;;;4903960;29;20472;-79
2022/10/22 09:08:13;;;;;;;0.20;0.20;;;19.10;78.60;;;;;;4902724;29;20208;-78
2022/10/22 09:10:48;;;;;;;0.47;0.47;;;19.20;79.70;;;;;;4902426;29;20059;-80
2022/10/22 09:13:18;;;;;;;0.20;0.20;;;19.50;80.00;;;;;;4903139;29;20140;-90
2022/10/22 09:15:59;;;;;;;1.50;1.40;;;19.90;80.50;;;;;;4903258;29;20044;-85
2022/10/22 09:18:54;;;;;;;0.10;0.10;;;20.00;77.30;;;;;;4887126;29;20755;-88
2022/10/22 09:21:39;;;;;;;4.60;3.42;;;20.10;75.90;;;;;;4902686;29;20335;-84
2022/10/22 09:24:10;;;;;;;0.32;0.30;;;20.30;74.00;;;;;;4902586;29;20076;-80
2022/10/22 09:26:39;;;;;;;1.75;1.65;;;20.70;73.70;;;;;;4903004;29;20258;-78
2022/10/22 09:29:05;;;;;;;0.47;0.47;;;21.10;73.80;;;;;;4902502;29;20550;-82
2022/10/22 09:31:32;;;;;;;0.15;0.15;;;21.40;70.00;;;;;;4902022;29;20111;-80
2022/10/22 09:34:04;;;;;;;0.63;0.63;;;21.60;68.40;;;;;;4887328;29;20531;-80
2022/10/22 09:36:30;;;;;;;1.35;1.27;;;21.60;68.30;;;;;;4902809;29;20132;-81
2022/10/22 09:38:56;;;;;;;0.85;0.85;;;21.70;67.00;;;;;;4902962;29;20024;-84
2022/10/22 09:41:31;;;;;;;1.52;1.42;;;21.60;66.70;;;;;;4917566;28;20209;-77
2022/10/22 09:43:58;;;;;;;0.30;0.30;;;22.80;67.10;;;;;;4982068;28;20501;-79
2022/10/22 09:46:28;;;;;;;0.10;0.10;;;21.40;66.80;;;;;;4982317;28;20141;-81
2022/10/22 09:49:08;;;;;;;2.05;1.88;;;21.20;66.90;;;;;;4964308;28;20034;-81
2022/10/22 09:51:56;;;;;;;1.38;1.27;;;21.10;67.70;;;;;;4981455;28;20042;-76
2022/10/22 09:54:37;;;;;;;0.22;0.22;;;20.90;68.00;;;;;;4981307;28;20513;-76
2022/10/22 09:57:26;;;;;;;0.25;0.25;;;20.80;68.40;;;;;;4981666;28;20056;-79
2022/10/22 09:59:54;;;;;;;0.65;0.65;;;20.80;68.60;;;;;;4980855;28;20019;-85
2022/10/22 10:02:27;;;;;;;2.20;2.10;;;20.70;69.60;;;;;;4981752;28;20033;-90
2022/10/22 10:04:55;;;;;;;1.10;1.02;;;20.60;69.90;;;;;;4981590;28;20193;-79
2022/10/22 10:07:28;;;;;;;1.00;0.65;;;20.50;70.50;;;;;;4981616;28;20092;-78
2022/10/22 10:09:54;;;;;;;;;;;20.60;71.20;;;;;;4982118;28;20027;-81
2022/10/22 10:12:41;;;;;;;0.15;0.15;;;20.70;70.80;;;;;;4981368;28;20207;-85
2022/10/22 10:15:23;;;;;;;3.42;2.97;;;21.10;70.30;;;;;;4981192;28;20542;-78
2022/10/22 10:17:54;;;;;;;2.78;2.58;;;21.50;69.30;;;;;;4981033;28;20393;-77
2022/10/22 10:20:26;;;;;;;1.45;1.40;;;21.80;67.40;;;;;;4980195;28;20227;-78
2022/10/22 10:23:19;;;;;;;0.10;0.10;;;22.10;67.10;;;;;;4981275;28;20030;-77
2022/10/22 10:26:16;;;;;;;1.30;1.20;;;22.50;67.20;;;;;;4981834;28;20245;-78
2022/10/22 10:29:01;;;;;;;0.40;0.40;;;22.80;65.10;;;;;;4981634;28;20038;-78
2022/10/22 10:31:35;;;;;;;3.20;1.95;;;22.90;63.90;;;;;;4981297;28;20243;-78
2022/10/22 10:34:38;;;;;;;0.20;0.20;;;22.90;61.90;;;;;;4981116;28;20061;-80
2022/10/22 10:37:31;;;;;;;3.05;2.85;;;23.60;62.00;;;;;;4981046;28;20041;-81
2022/10/22 10:40:18;;;;;;;0.93;0.93;;;23.70;61.50;;;;;;4981785;28;20475;-79
2022/10/22 10:42:47;;;;;;;0.90;0.90;;;23.90;60.80;;;;;;4981335;28;20456;-79
2022/10/22 10:45:19;;;;;;;1.08;1.00;;;24.20;59.50;;;;;;4980053;28;20495;-90
2022/10/22 10:48:09;;;;;;;0.20;0.20;;;24.30;58.90;;;;;;4981345;28;20264;-78
2022/10/22 10:50:49;;;;;;;0.28;0.28;;;24.30;56.60;;;;;;4980453;28;20109;-78
2022/10/22 10:53:38;;;;;;;1.92;1.83;;;24.40;56.00;;;;;;4980887;28;20034;-78
2022/10/22 10:56:37;;;;;;;1.77;1.65;;;24.40;56.30;;;;;;4981328;28;20065;-90
2022/10/22 10:59:15;;;;;;;1.77;1.67;;;24.20;56.50;;;;;;4982185;28;20501;-84
2022/10/22 11:01:52;;;;;;;0.80;0.80;;;24.00;58.00;;;;;;4982195;28;20164;-78
2022/10/22 11:04:44;;;;;;;0.60;0.60;;;23.70;58.00;;;;;;4964651;28;20026;-82
2022/10/22 11:07:17;;;;;;;1.20;1.17;;;23.40;58.40;;;;;;4983868;28;20042;-79
2022/10/22 11:09:53;;;;;;;1.60;1.40;;;23.10;55.60;;;;;;4962530;28;20102;-80
2022/10/22 11:12:28;;;;;;;1.45;1.35;;;23.00;55.50;;;;;;4979997;28;20111;-78
2022/10/22 11:15:21;;;;;;;0.25;0.25;;;22.80;55.20;;;;;;4979809;28;20054;-80
2022/10/22 11:17:48;;;;;;;0.10;0.10;;;22.80;56.30;;;;;;4980147;28;20049;-78
2022/10/22 11:20:21;;;;;;;2.65;0.70;;;22.80;55.80;;;;;;4980592;28;20030;-77
2022/10/22 11:23:00;;;;;;;0.15;0.15;;;22.80;56.10;;;;;;4962931;28;20072;-83
2022/10/22 11:25:33;;;;;;;4.15;2.05;;;22.90;55.70;;;;;;4981554;28;20776;-84
2022/10/22 11:28:07;;;;;;;1.08;1.02;;;23.20;55.60;;;;;;4978697;28;20240;-78
2022/10/22 11:30:35;;;;;;;0.68;0.68;;;23.50;54.50;;;;;;4980062;28;20034;-78
2022/10/22 11:33:09;;;;;;;1.17;1.08;;;23.80;51.50;;;;;;4962583;28;20050;-79
2022/10/22 11:35:39;;;;;;;0.20;0.20;;;24.00;50.40;;;;;;4960855;28;20251;-80
2022/10/22 11:38:06;;;;;;;0.63;0.63;;;24.40;50.00;;;;;;4960611;28;20097;-80
2022/10/22 11:40:34;;;;;;;4.18;1.17;;;24.70;49.00;;;;;;4959534;28;20478;-77
2022/10/22 11:43:08;;;;;;;2.83;1.90;;;25.20;48.60;;;;;;4961398;28;20344;-83
2022/10/22 11:45:42;;;;;;;0.20;0.20;;;25.50;48.00;;;;;;4963957;28;20019;-81
2022/10/22 11:48:10;;;;;;;;;;;25.70;46.20;;;;;;4961050;28;20121;-80
2022/10/22 11:50:47;;;;;;;0.28;0.28;;;25.90;46.30;;;;;;4962357;28;19906;-80
2022/10/22 11:53:13;;;;;;;0.45;0.43;;;26.20;46.00;;;;;;4959311;28;20405;-77
2022/10/22 11:55:54;;;;;;;0.93;0.52;;;26.30;44.50;;;;;;4960632;28;20031;-79
2022/10/22 11:58:41;;;;;;;0.43;0.40;;;26.40;44.30;;;;;;4960138;28;20410;-81
2022/10/22 12:01:06;;;;;;;0.10;0.10;;;26.40;43.70;;;;;;4959950;28;20082;-81
2022/10/22 12:03:32;;;;;;;0.10;0.10;;;26.60;44.00;;;;;;4962140;28;20077;-79
2022/10/22 12:06:04;;;;;;;0.15;0.15;;;26.70;41.70;;;;;;4966114;28;20248;-79
2022/10/22 12:08:31;;;;;;;0.55;0.55;;;26.70;42.10;;;;;;4964123;28;20018;-79
2022/10/22 12:11:11;;;;;;;0.85;0.68;;;26.60;40.40;;;;;;4964497;28;20027;-78
2022/10/22 12:13:57;;;;;;;1.13;0.88;;;26.40;41.20;;;;;;4963439;28;20023;-77
2022/10/22 12:16:45;;;;;;;0.20;0.20;;;26.40;41.30;;;;;;4961933;28;20054;-78
2022/10/22 12:19:10;;;;;;;0.32;0.30;;;26.20;41.80;;;;;;4960721;28;20019;-82
2022/10/22 12:21:42;;;;;;;1.15;1.05;;;26.20;42.40;;;;;;4960486;28;20037;-79
2022/10/22 12:24:14;;;;;;;0.10;0.10;;;26.20;41.60;;;;;;4960070;28;20031;-78
2022/10/22 12:26:40;;;;;;;4.32;4.10;;;26.30;41.80;;;;;;4959577;28;20020;-88
2022/10/22 12:29:11;;;;;;;0.25;0.25;;;26.40;41.00;;;;;;4959384;28;20569;-77
2022/10/22 12:31:39;;;;;;;0.43;0.40;;;26.60;40.70;;;;;;4967216;28;20085;-78
2022/10/22 12:34:05;;;;;;;2.47;1.75;;;26.40;37.90;;;;;;4978704;28;20026;-80
2022/10/22 12:36:35;;;;;;;0.08;0.08;;;26.30;38.70;;;;;;4978985;28;20441;-76
2022/10/22 12:39:09;;;;;;;0.10;0.10;;;26.40;39.60;;;;;;4978704;28;20019;-77
2022/10/22 12:41:37;;;;;;;0.65;0.65;;;26.60;39.20;;;;;;4978750;28;20455;-78
2022/10/22 12:44:04;;;;;;;0.10;0.10;;;26.70;39.50;;;;;;4978650;28;20123;-77
2022/10/22 12:46:34;;;;;;;0.17;0.17;;;26.80;39.50;;;;;;4978200;28;20291;-77
2022/10/22 12:49:20;;;;;;;0.10;0.10;;;27.10;39.00;;;;;;4978445;28;20026;-78
2022/10/22 12:51:47;;;;;;;0.32;0.20;;;27.20;37.30;;;;;;4977893;28;20030;-85
2022/10/22 12:54:33;;;;;;;0.00;0.00;;;27.20;37.70;;;;;;4960868;28;20026;-79
2022/10/22 12:57:00;;;;;;;0.20;0.20;;;;;;;;;;4978198;28;20011;-77
2022/10/22 12:59:27;;;;;;;0.10;0.10;;;27.40;37.40;;;;;;4978295;28;20023;-77
2022/10/22 13:01:54;;;;;;;0.10;0.10;;;27.60;37.00;;;;;;4960702;28;20332;-78
2022/10/22 13:04:27;;;;;;;0.00;0.00;;;27.70;37.00;;;;;;4978878;28;20081;-77
2022/10/22 13:07:11;;;;;;;0.00;0.00;;;27.80;36.90;;;;;;4977196;28;20029;-77
2022/10/22 13:09:38;;;;;;;0.17;0.17;;;27.60;36.30;;;;;;4978578;28;20033;-79
2022/10/22 13:12:05;;;;;;;0.35;0.35;;;27.60;36.60;;;;;;4977162;28;20136;-79
2022/10/22 13:14:34;;;;;;;0.00;0.00;;;27.70;36.60;;;;;;4961466;28;20034;-78
2022/10/22 13:20:04;;;;;;;1.58;0.57;;;28.40;36.90;;;;;;4985329;23;20077;-77
2022/10/22 13:22:39;;;;;;;0.50;0.50;;;28.00;36.90;;;;;;4978365;28;20025;-80
2022/10/22 13:25:14;;;;;;;0.05;0.05;;;28.30;37.30;;;;;;4960529;28;20490;-77
2022/10/22 13:27:49;;;;;;;2.10;2.00;;;28.30;36.40;;;;;;4977984;28;20046;-77
2022/10/22 13:30:27;;;;;;;0.00;0.00;;;28.40;36.30;;;;;;4978244;28;20168;-78
2022/10/22 13:32:58;;;;;;;0.10;0.10;;;28.10;36.10;;;;;;4977847;28;20026;-77
2022/10/22 13:35:32;;;;;;;0.00;0.00;;;28.90;37.20;;;;;;4980016;28;20118;-79